sensor_id;sensor_type;location;lat;lon;timestamp;P1;durP1;ratioP1;P2;durP2;ratioP2
36449;SDS011;22475;51.390;7.180;2023-01-13T00:02:27;0.52;;;0.22;;
36449;SDS011;22475;51.390;7.180;2023-01-13T00:05:11;0.10;;;0.10;;
36449;SDS011;22475;51.390;7.180;2023-01-13T00:07:37;0.20;;;0.20;;
36449;SDS011;22475;51.390;7.180;2023-01-13T00:10:07;0.43;;;0.20;;
36449;SDS011;22475;51.390;7.180;2023-01-13T00:12:37;0.22;;;0.10;;
36449;SDS011;22475;51.390;7.180;2023-01-13T00:15:05;0.20;;;0.17;;
36449;SDS011;22475;51.390;7.180;2023-01-13T00:17:33;0.30;;;0.20;;
36449;SDS011;22475;51.390;7.180;2023-01-13T00:19:59;1.15;;;0.20;;
36449;SDS011;22475;51.390;7.180;2023-01-13T00:22:26;0.28;;;0.20;;
36449;SDS011;22475;51.390;7.180;2023-01-13T00:24:53;3.40;;;0.20;;
36449;SDS011;22475;51.390;7.180;2023-01-13T00:27:23;0.10;;;0.10;;
36449;SDS011;22475;51.390;7.180;2023-01-13T00:29:50;0.22;;;0.10;;
36449;SDS011;22475;51.390;7.180;2023-01-13T00:32:16;0.40;;;0.17;;
36449;SDS011;22475;51.390;7.180;2023-01-13T00:34:43;0.22;;;0.10;;
36449;SDS011;22475;51.390;7.180;2023-01-13T00:37:10;0.10;;;0.00;;
36449;SDS011;22475;51.390;7.180;2023-01-13T00:39:38;0.20;;;0.10;;
36449;SDS011;22475;51.390;7.180;2023-01-13T00:42:05;0.70;;;0.10;;
36449;SDS011;22475;51.390;7.180;2023-01-13T00:44:51;0.20;;;0.15;;
36449;SDS011;22475;51.390;7.180;2023-01-13T00:47:18;0.20;;;0.10;;
36449;SDS011;22475;51.390;7.180;2023-01-13T00:49:44;0.00;;;0.00;;
36449;SDS011;22475;51.390;7.180;2023-01-13T00:52:11;1.45;;;0.30;;
36449;SDS011;22475;51.390;7.180;2023-01-13T00:54:38;2.03;;;0.20;;
36449;SDS011;22475;51.390;7.180;2023-01-13T00:57:04;0.20;;;0.20;;
36449;SDS011;22475;51.390;7.180;2023-01-13T00:59:31;0.45;;;0.13;;
36449;SDS011;22475;51.390;7.180;2023-01-13T01:01:59;0.10;;;0.10;;
36449;SDS011;22475;51.390;7.180;2023-01-13T01:04:26;0.30;;;0.30;;
36449;SDS011;22475;51.390;7.180;2023-01-13T01:06:53;1.40;;;0.50;;
36449;SDS011;22475;51.390;7.180;2023-01-13T01:09:19;3.30;;;0.30;;
36449;SDS011;22475;51.390;7.180;2023-01-13T01:11:46;1.15;;;0.22;;
36449;SDS011;22475;51.390;7.180;2023-01-13T01:14:13;0.17;;;0.05;;
36449;SDS011;22475;51.390;7.180;2023-01-13T01:16:40;0.90;;;0.45;;
36449;SDS011;22475;51.390;7.180;2023-01-13T01:19:08;0.20;;;0.10;;
36449;SDS011;22475;51.390;7.180;2023-01-13T01:21:35;1.90;;;0.20;;
36449;SDS011;22475;51.390;7.180;2023-01-13T01:24:02;1.65;;;0.40;;
36449;SDS011;22475;51.390;7.180;2023-01-13T01:26:30;0.15;;;0.05;;
36449;SDS011;22475;51.390;7.180;2023-01-13T01:28:58;0.93;;;0.17;;
36449;SDS011;22475;51.390;7.180;2023-01-13T01:31:27;1.38;;;0.30;;
36449;SDS011;22475;51.390;7.180;2023-01-13T01:33:55;0.60;;;0.28;;
36449;SDS011;22475;51.390;7.180;2023-01-13T01:36:24;0.20;;;0.08;;
36449;SDS011;22475;51.390;7.180;2023-01-13T01:38:54;1.98;;;0.43;;
36449;SDS011;22475;51.390;7.180;2023-01-13T01:41:22;0.85;;;0.47;;
36449;SDS011;22475;51.390;7.180;2023-01-13T01:43:51;0.20;;;0.20;;
36449;SDS011;22475;51.390;7.180;2023-01-13T01:46:27;0.50;;;0.25;;
36449;SDS011;22475;51.390;7.180;2023-01-13T01:48:57;2.17;;;0.45;;
36449;SDS011;22475;51.390;7.180;2023-01-13T01:51:29;0.80;;;0.22;;
36449;SDS011;22475;51.390;7.180;2023-01-13T01:53:59;1.00;;;0.20;;
36449;SDS011;22475;51.390;7.180;2023-01-13T01:56:29;0.33;;;0.20;;
36449;SDS011;22475;51.390;7.180;2023-01-13T01:58:57;1.50;;;0.20;;
36449;SDS011;22475;51.390;7.180;2023-01-13T02:01:24;0.40;;;0.32;;
36449;SDS011;22475;51.390;7.180;2023-01-13T02:03:53;1.05;;;0.50;;
36449;SDS011;22475;51.390;7.180;2023-01-13T02:06:24;0.55;;;0.20;;
36449;SDS011;22475;51.390;7.180;2023-01-13T02:08:52;2.20;;;0.45;;
36449;SDS011;22475;51.390;7.180;2023-01-13T02:11:26;0.10;;;0.10;;
36449;SDS011;22475;51.390;7.180;2023-01-13T02:14:11;1.40;;;0.30;;
36449;SDS011;22475;51.390;7.180;2023-01-13T02:16:39;0.68;;;0.20;;
36449;SDS011;22475;51.390;7.180;2023-01-13T02:19:14;0.47;;;0.30;;
36449;SDS011;22475;51.390;7.180;2023-01-13T02:22:07;5.55;;;0.45;;
36449;SDS011;22475;51.390;7.180;2023-01-13T02:30:46;2.58;;;0.40;;
36449;SDS011;22475;51.390;7.180;2023-01-13T02:33:40;0.95;;;0.30;;
36449;SDS011;22475;51.390;7.180;2023-01-13T02:36:18;1.45;;;0.43;;
36449;SDS011;22475;51.390;7.180;2023-01-13T02:38:51;2.35;;;0.38;;
36449;SDS011;22475;51.390;7.180;2023-01-13T02:41:23;0.40;;;0.25;;
36449;SDS011;22475;51.390;7.180;2023-01-13T02:44:11;4.18;;;0.40;;
36449;SDS011;22475;51.390;7.180;2023-01-13T02:46:48;2.17;;;0.32;;
36449;SDS011;22475;51.390;7.180;2023-01-13T02:49:20;3.20;;;0.28;;
36449;SDS011;22475;51.390;7.180;2023-01-13T02:51:53;0.55;;;0.17;;
36449;SDS011;22475;51.390;7.180;2023-01-13T02:54:24;2.05;;;0.60;;
36449;SDS011;22475;51.390;7.180;2023-01-13T02:56:54;0.75;;;0.40;;
36449;SDS011;22475;51.390;7.180;2023-01-13T02:59:23;1.50;;;0.52;;
36449;SDS011;22475;51.390;7.180;2023-01-13T03:01:54;4.35;;;0.85;;
36449;SDS011;22475;51.390;7.180;2023-01-13T03:07:12;2.33;;;0.60;;
36449;SDS011;22475;51.390;7.180;2023-01-13T03:10:10;1.38;;;0.25;;
36449;SDS011;22475;51.390;7.180;2023-01-13T03:12:49;2.10;;;0.73;;
36449;SDS011;22475;51.390;7.180;2023-01-13T03:15:22;1.63;;;0.35;;
36449;SDS011;22475;51.390;7.180;2023-01-13T03:18:04;5.15;;;0.63;;
36449;SDS011;22475;51.390;7.180;2023-01-13T03:20:40;3.67;;;0.85;;
36449;SDS011;22475;51.390;7.180;2023-01-13T03:23:13;1.73;;;0.38;;
36449;SDS011;22475;51.390;7.180;2023-01-13T03:25:48;2.25;;;0.35;;
36449;SDS011;22475;51.390;7.180;2023-01-13T03:28:18;1.63;;;0.50;;
36449;SDS011;22475;51.390;7.180;2023-01-13T03:30:51;12.60;;;0.60;;
36449;SDS011;22475;51.390;7.180;2023-01-13T03:33:24;0.63;;;0.40;;
36449;SDS011;22475;51.390;7.180;2023-01-13T03:35:55;1.52;;;0.52;;
36449;SDS011;22475;51.390;7.180;2023-01-13T03:38:27;0.90;;;0.32;;
36449;SDS011;22475;51.390;7.180;2023-01-13T03:40:57;3.97;;;0.55;;
36449;SDS011;22475;51.390;7.180;2023-01-13T03:43:27;2.07;;;1.17;;
36449;SDS011;22475;51.390;7.180;2023-01-13T03:46:22;2.38;;;0.22;;
36449;SDS011;22475;51.390;7.180;2023-01-13T03:48:56;1.65;;;0.30;;
36449;SDS011;22475;51.390;7.180;2023-01-13T03:51:25;1.42;;;0.50;;
36449;SDS011;22475;51.390;7.180;2023-01-13T03:53:56;4.22;;;0.82;;
36449;SDS011;22475;51.390;7.180;2023-01-13T03:56:29;3.75;;;0.40;;
36449;SDS011;22475;51.390;7.180;2023-01-13T03:59:03;0.70;;;0.22;;
36449;SDS011;22475;51.390;7.180;2023-01-13T04:01:34;1.73;;;0.93;;
36449;SDS011;22475;51.390;7.180;2023-01-13T04:04:11;2.00;;;0.30;;
36449;SDS011;22475;51.390;7.180;2023-01-13T04:06:45;7.25;;;0.95;;
36449;SDS011;22475;51.390;7.180;2023-01-13T04:09:18;2.97;;;1.00;;
36449;SDS011;22475;51.390;7.180;2023-01-13T04:11:55;2.17;;;0.50;;
36449;SDS011;22475;51.390;7.180;2023-01-13T04:14:26;8.68;;;0.57;;
36449;SDS011;22475;51.390;7.180;2023-01-13T04:16:54;1.90;;;0.80;;
36449;SDS011;22475;51.390;7.180;2023-01-13T04:19:22;6.88;;;0.52;;
36449;SDS011;22475;51.390;7.180;2023-01-13T04:21:49;10.63;;;0.88;;
36449;SDS011;22475;51.390;7.180;2023-01-13T04:24:16;1.10;;;0.35;;
36449;SDS011;22475;51.390;7.180;2023-01-13T04:26:43;6.63;;;0.77;;
36449;SDS011;22475;51.390;7.180;2023-01-13T04:29:09;2.17;;;0.57;;
36449;SDS011;22475;51.390;7.180;2023-01-13T04:31:36;2.67;;;0.65;;
36449;SDS011;22475;51.390;7.180;2023-01-13T04:34:03;2.55;;;0.60;;
36449;SDS011;22475;51.390;7.180;2023-01-13T04:36:31;2.50;;;0.52;;
36449;SDS011;22475;51.390;7.180;2023-01-13T04:38:58;4.05;;;0.70;;
36449;SDS011;22475;51.390;7.180;2023-01-13T04:41:24;2.65;;;0.68;;
36449;SDS011;22475;51.390;7.180;2023-01-13T04:43:51;5.68;;;0.50;;
36449;SDS011;22475;51.390;7.180;2023-01-13T04:46:18;6.55;;;1.08;;
36449;SDS011;22475;51.390;7.180;2023-01-13T04:48:44;5.25;;;0.85;;
36449;SDS011;22475;51.390;7.180;2023-01-13T04:51:11;5.88;;;0.60;;
36449;SDS011;22475;51.390;7.180;2023-01-13T04:53:39;2.88;;;0.80;;
36449;SDS011;22475;51.390;7.180;2023-01-13T04:56:06;1.52;;;0.60;;
36449;SDS011;22475;51.390;7.180;2023-01-13T04:58:33;5.22;;;0.68;;
36449;SDS011;22475;51.390;7.180;2023-01-13T05:01:00;2.42;;;0.70;;
36449;SDS011;22475;51.390;7.180;2023-01-13T05:03:26;5.28;;;0.43;;
36449;SDS011;22475;51.390;7.180;2023-01-13T05:05:53;1.88;;;0.50;;
36449;SDS011;22475;51.390;7.180;2023-01-13T05:08:20;6.65;;;0.80;;
36449;SDS011;22475;51.390;7.180;2023-01-13T05:10:48;5.38;;;0.60;;
36449;SDS011;22475;51.390;7.180;2023-01-13T05:13:15;3.22;;;0.85;;
36449;SDS011;22475;51.390;7.180;2023-01-13T05:15:59;3.60;;;1.33;;
36449;SDS011;22475;51.390;7.180;2023-01-13T05:18:43;4.95;;;0.77;;
36449;SDS011;22475;51.390;7.180;2023-01-13T05:21:09;4.95;;;1.77;;
36449;SDS011;22475;51.390;7.180;2023-01-13T05:23:57;5.75;;;0.80;;
36449;SDS011;22475;51.390;7.180;2023-01-13T05:26:43;3.17;;;0.70;;
36449;SDS011;22475;51.390;7.180;2023-01-13T05:29:09;5.80;;;1.17;;
36449;SDS011;22475;51.390;7.180;2023-01-13T05:31:36;5.28;;;1.25;;
36449;SDS011;22475;51.390;7.180;2023-01-13T05:34:03;2.17;;;0.50;;
36449;SDS011;22475;51.390;7.180;2023-01-13T05:36:29;3.08;;;1.20;;
36449;SDS011;22475;51.390;7.180;2023-01-13T05:38:56;7.13;;;1.00;;
36449;SDS011;22475;51.390;7.180;2023-01-13T05:41:23;6.40;;;0.57;;
36449;SDS011;22475;51.390;7.180;2023-01-13T05:44:08;9.90;;;1.10;;
36449;SDS011;22475;51.390;7.180;2023-01-13T05:46:35;6.10;;;0.65;;
36449;SDS011;22475;51.390;7.180;2023-01-13T05:49:02;3.83;;;0.73;;
36449;SDS011;22475;51.390;7.180;2023-01-13T05:51:29;5.32;;;1.30;;
36449;SDS011;22475;51.390;7.180;2023-01-13T05:53:56;1.85;;;1.05;;
36449;SDS011;22475;51.390;7.180;2023-01-13T05:56:23;7.60;;;1.90;;
36449;SDS011;22475;51.390;7.180;2023-01-13T05:58:50;7.68;;;1.15;;
36449;SDS011;22475;51.390;7.180;2023-01-13T06:01:18;9.02;;;1.85;;
36449;SDS011;22475;51.390;7.180;2023-01-13T06:03:44;6.30;;;1.00;;
36449;SDS011;22475;51.390;7.180;2023-01-13T06:06:11;1.70;;;0.70;;
36449;SDS011;22475;51.390;7.180;2023-01-13T06:08:38;5.05;;;1.20;;
36449;SDS011;22475;51.390;7.180;2023-01-13T06:11:04;7.88;;;1.48;;
36449;SDS011;22475;51.390;7.180;2023-01-13T06:13:31;5.05;;;0.75;;
36449;SDS011;22475;51.390;7.180;2023-01-13T06:15:58;6.53;;;0.45;;
36449;SDS011;22475;51.390;7.180;2023-01-13T06:18:26;3.03;;;1.08;;
36449;SDS011;22475;51.390;7.180;2023-01-13T06:20:53;9.65;;;1.33;;
36449;SDS011;22475;51.390;7.180;2023-01-13T06:23:20;4.40;;;1.35;;
36449;SDS011;22475;51.390;7.180;2023-01-13T06:25:48;9.73;;;1.30;;
36449;SDS011;22475;51.390;7.180;2023-01-13T06:28:20;3.28;;;0.73;;
36449;SDS011;22475;51.390;7.180;2023-01-13T06:30:48;4.85;;;1.23;;
36449;SDS011;22475;51.390;7.180;2023-01-13T06:35:49;9.07;;;1.20;;
36449;SDS011;22475;51.390;7.180;2023-01-13T06:38:18;2.30;;;0.57;;
36449;SDS011;22475;51.390;7.180;2023-01-13T06:40:47;7.55;;;1.17;;
36449;SDS011;22475;51.390;7.180;2023-01-13T06:43:14;5.32;;;0.90;;
36449;SDS011;22475;51.390;7.180;2023-01-13T06:45:41;3.78;;;0.70;;
36449;SDS011;22475;51.390;7.180;2023-01-13T06:48:10;6.38;;;1.23;;
36449;SDS011;22475;51.390;7.180;2023-01-13T06:50:37;3.15;;;0.93;;
36449;SDS011;22475;51.390;7.180;2023-01-13T06:53:05;3.42;;;1.23;;
36449;SDS011;22475;51.390;7.180;2023-01-13T06:55:32;6.38;;;1.48;;
36449;SDS011;22475;51.390;7.180;2023-01-13T06:57:58;7.85;;;1.38;;
36449;SDS011;22475;51.390;7.180;2023-01-13T07:00:25;3.10;;;0.98;;
36449;SDS011;22475;51.390;7.180;2023-01-13T07:02:52;1.48;;;0.90;;
36449;SDS011;22475;51.390;7.180;2023-01-13T07:05:29;6.00;;;1.42;;
36449;SDS011;22475;51.390;7.180;2023-01-13T07:07:56;9.10;;;0.85;;
36449;SDS011;22475;51.390;7.180;2023-01-13T07:10:24;11.98;;;1.13;;
36449;SDS011;22475;51.390;7.180;2023-01-13T07:12:51;5.57;;;1.17;;
36449;SDS011;22475;51.390;7.180;2023-01-13T07:15:35;4.82;;;1.20;;
36449;SDS011;22475;51.390;7.180;2023-01-13T07:18:02;3.58;;;1.15;;
36449;SDS011;22475;51.390;7.180;2023-01-13T07:20:29;9.27;;;1.63;;
36449;SDS011;22475;51.390;7.180;2023-01-13T07:22:56;12.75;;;0.77;;
36449;SDS011;22475;51.390;7.180;2023-01-13T07:25:24;12.95;;;1.25;;
36449;SDS011;22475;51.390;7.180;2023-01-13T07:27:51;3.67;;;1.02;;
36449;SDS011;22475;51.390;7.180;2023-01-13T07:30:18;10.80;;;1.10;;
36449;SDS011;22475;51.390;7.180;2023-01-13T07:32:45;9.60;;;1.73;;
36449;SDS011;22475;51.390;7.180;2023-01-13T07:35:12;5.32;;;1.48;;
36449;SDS011;22475;51.390;7.180;2023-01-13T07:37:38;8.55;;;1.00;;
36449;SDS011;22475;51.390;7.180;2023-01-13T07:40:07;3.20;;;0.60;;
36449;SDS011;22475;51.390;7.180;2023-01-13T07:42:38;4.75;;;0.85;;
36449;SDS011;22475;51.390;7.180;2023-01-13T07:45:22;7.60;;;1.15;;
36449;SDS011;22475;51.390;7.180;2023-01-13T07:47:52;7.03;;;1.45;;
36449;SDS011;22475;51.390;7.180;2023-01-13T07:50:18;9.85;;;1.17;;
36449;SDS011;22475;51.390;7.180;2023-01-13T07:52:47;7.43;;;1.60;;
36449;SDS011;22475;51.390;7.180;2023-01-13T07:55:14;7.85;;;1.42;;
36449;SDS011;22475;51.390;7.180;2023-01-13T07:57:42;3.42;;;0.82;;
36449;SDS011;22475;51.390;7.180;2023-01-13T08:00:10;4.53;;;0.80;;
36449;SDS011;22475;51.390;7.180;2023-01-13T08:02:37;6.35;;;1.58;;
36449;SDS011;22475;51.390;7.180;2023-01-13T08:05:04;7.85;;;1.25;;
36449;SDS011;22475;51.390;7.180;2023-01-13T08:07:31;2.42;;;1.10;;
36449;SDS011;22475;51.390;7.180;2023-01-13T08:09:58;10.07;;;1.48;;
36449;SDS011;22475;51.390;7.180;2023-01-13T08:12:25;3.75;;;1.10;;
36449;SDS011;22475;51.390;7.180;2023-01-13T08:15:11;9.27;;;1.23;;
36449;SDS011;22475;51.390;7.180;2023-01-13T08:17:38;4.57;;;1.23;;
36449;SDS011;22475;51.390;7.180;2023-01-13T08:20:05;1.27;;;0.40;;
36449;SDS011;22475;51.390;7.180;2023-01-13T08:22:33;6.97;;;1.00;;
36449;SDS011;22475;51.390;7.180;2023-01-13T08:25:00;7.25;;;1.30;;
36449;SDS011;22475;51.390;7.180;2023-01-13T08:27:26;6.38;;;0.98;;
36449;SDS011;22475;51.390;7.180;2023-01-13T08:29:53;7.18;;;0.70;;
36449;SDS011;22475;51.390;7.180;2023-01-13T08:32:21;5.30;;;1.02;;
36449;SDS011;22475;51.390;7.180;2023-01-13T08:34:48;5.82;;;0.82;;
36449;SDS011;22475;51.390;7.180;2023-01-13T08:37:15;3.13;;;0.73;;
36449;SDS011;22475;51.390;7.180;2023-01-13T08:39:41;5.57;;;1.05;;
36449;SDS011;22475;51.390;7.180;2023-01-13T08:42:08;10.25;;;1.77;;
36449;SDS011;22475;51.390;7.180;2023-01-13T08:44:35;3.28;;;1.25;;
36449;SDS011;22475;51.390;7.180;2023-01-13T08:47:02;5.40;;;0.93;;
36449;SDS011;22475;51.390;7.180;2023-01-13T08:49:30;2.67;;;0.70;;
36449;SDS011;22475;51.390;7.180;2023-01-13T08:51:57;12.00;;;1.65;;
36449;SDS011;22475;51.390;7.180;2023-01-13T08:54:24;4.43;;;0.95;;
36449;SDS011;22475;51.390;7.180;2023-01-13T08:56:50;2.72;;;0.85;;
36449;SDS011;22475;51.390;7.180;2023-01-13T08:59:18;6.15;;;1.70;;
36449;SDS011;22475;51.390;7.180;2023-01-13T09:01:45;4.13;;;0.98;;
36449;SDS011;22475;51.390;7.180;2023-01-13T09:04:13;4.47;;;1.08;;
36449;SDS011;22475;51.390;7.180;2023-01-13T09:06:43;4.13;;;1.17;;
36449;SDS011;22475;51.390;7.180;2023-01-13T09:09:09;7.45;;;1.67;;
36449;SDS011;22475;51.390;7.180;2023-01-13T09:11:38;9.13;;;1.65;;
36449;SDS011;22475;51.390;7.180;2023-01-13T09:14:26;11.75;;;1.85;;
36449;SDS011;22475;51.390;7.180;2023-01-13T09:16:55;5.43;;;1.37;;
36449;SDS011;22475;51.390;7.180;2023-01-13T09:19:22;6.63;;;1.30;;
36449;SDS011;22475;51.390;7.180;2023-01-13T09:21:51;5.22;;;0.75;;
36449;SDS011;22475;51.390;7.180;2023-01-13T09:24:18;2.42;;;1.30;;
36449;SDS011;22475;51.390;7.180;2023-01-13T09:26:45;10.55;;;1.10;;
36449;SDS011;22475;51.390;7.180;2023-01-13T09:29:12;8.88;;;1.98;;
36449;SDS011;22475;51.390;7.180;2023-01-13T09:31:39;3.80;;;1.20;;
36449;SDS011;22475;51.390;7.180;2023-01-13T09:34:07;4.38;;;1.38;;
36449;SDS011;22475;51.390;7.180;2023-01-13T09:36:56;9.23;;;2.40;;
36449;SDS011;22475;51.390;7.180;2023-01-13T09:39:23;2.10;;;0.43;;
36449;SDS011;22475;51.390;7.180;2023-01-13T09:41:51;3.90;;;0.73;;
36449;SDS011;22475;51.390;7.180;2023-01-13T09:44:40;10.13;;;1.48;;
36449;SDS011;22475;51.390;7.180;2023-01-13T09:47:16;6.53;;;1.23;;
36449;SDS011;22475;51.390;7.180;2023-01-13T09:49:48;8.50;;;1.90;;
36449;SDS011;22475;51.390;7.180;2023-01-13T09:52:17;5.97;;;1.13;;
36449;SDS011;22475;51.390;7.180;2023-01-13T09:54:47;11.45;;;2.45;;
36449;SDS011;22475;51.390;7.180;2023-01-13T09:57:19;5.75;;;1.08;;
36449;SDS011;22475;51.390;7.180;2023-01-13T09:59:46;5.90;;;1.48;;
36449;SDS011;22475;51.390;7.180;2023-01-13T10:05:09;5.95;;;1.33;;
36449;SDS011;22475;51.390;7.180;2023-01-13T10:07:41;9.55;;;1.10;;
36449;SDS011;22475;51.390;7.180;2023-01-13T10:10:12;8.45;;;1.70;;
36449;SDS011;22475;51.390;7.180;2023-01-13T10:12:43;10.25;;;1.20;;
36449;SDS011;22475;51.390;7.180;2023-01-13T10:15:30;9.98;;;1.77;;
36449;SDS011;22475;51.390;7.180;2023-01-13T10:17:58;4.43;;;1.25;;
36449;SDS011;22475;51.390;7.180;2023-01-13T10:20:34;13.15;;;1.63;;
36449;SDS011;22475;51.390;7.180;2023-01-13T10:23:19;9.65;;;1.63;;
36449;SDS011;22475;51.390;7.180;2023-01-13T10:26:04;15.67;;;2.50;;
36449;SDS011;22475;51.390;7.180;2023-01-13T10:28:49;4.97;;;1.05;;
36449;SDS011;22475;51.390;7.180;2023-01-13T10:31:16;2.05;;;0.80;;
36449;SDS011;22475;51.390;7.180;2023-01-13T10:33:45;7.65;;;1.52;;
36449;SDS011;22475;51.390;7.180;2023-01-13T10:36:13;5.93;;;1.60;;
36449;SDS011;22475;51.390;7.180;2023-01-13T10:38:42;5.50;;;2.15;;
36449;SDS011;22475;51.390;7.180;2023-01-13T10:41:18;13.32;;;1.73;;
36449;SDS011;22475;51.390;7.180;2023-01-13T10:44:00;11.73;;;2.55;;
36449;SDS011;22475;51.390;7.180;2023-01-13T10:46:29;10.18;;;2.10;;
36449;SDS011;22475;51.390;7.180;2023-01-13T10:48:57;8.18;;;1.45;;
36449;SDS011;22475;51.390;7.180;2023-01-13T10:51:26;15.35;;;2.53;;
36449;SDS011;22475;51.390;7.180;2023-01-13T10:53:56;14.13;;;2.45;;
36449;SDS011;22475;51.390;7.180;2023-01-13T10:56:26;5.85;;;1.92;;
36449;SDS011;22475;51.390;7.180;2023-01-13T10:59:08;11.60;;;2.03;;
36449;SDS011;22475;51.390;7.180;2023-01-13T11:01:40;15.73;;;1.88;;
36449;SDS011;22475;51.390;7.180;2023-01-13T11:06:52;6.55;;;1.60;;
36449;SDS011;22475;51.390;7.180;2023-01-13T11:09:20;7.38;;;1.67;;
36449;SDS011;22475;51.390;7.180;2023-01-13T11:11:48;6.53;;;1.80;;
36449;SDS011;22475;51.390;7.180;2023-01-13T11:17:12;13.90;;;2.08;;
36449;SDS011;22475;51.390;7.180;2023-01-13T11:19:53;11.65;;;1.85;;
36449;SDS011;22475;51.390;7.180;2023-01-13T11:22:26;12.40;;;1.27;;
36449;SDS011;22475;51.390;7.180;2023-01-13T11:24:58;11.07;;;1.55;;
36449;SDS011;22475;51.390;7.180;2023-01-13T11:27:30;15.40;;;2.40;;
36449;SDS011;22475;51.390;7.180;2023-01-13T11:30:06;9.20;;;1.88;;
36449;SDS011;22475;51.390;7.180;2023-01-13T11:32:43;10.85;;;2.72;;
36449;SDS011;22475;51.390;7.180;2023-01-13T11:35:23;8.98;;;2.33;;
36449;SDS011;22475;51.390;7.180;2023-01-13T11:37:51;10.10;;;1.65;;
36449;SDS011;22475;51.390;7.180;2023-01-13T11:40:24;5.53;;;1.50;;
36449;SDS011;22475;51.390;7.180;2023-01-13T11:42:58;10.00;;;1.60;;
36449;SDS011;22475;51.390;7.180;2023-01-13T11:45:35;10.75;;;2.03;;
36449;SDS011;22475;51.390;7.180;2023-01-13T11:48:07;10.77;;;1.70;;
36449;SDS011;22475;51.390;7.180;2023-01-13T11:50:39;18.77;;;1.65;;
36449;SDS011;22475;51.390;7.180;2023-01-13T11:53:16;9.65;;;1.17;;
36449;SDS011;22475;51.390;7.180;2023-01-13T11:56:01;7.72;;;1.42;;
36449;SDS011;22475;51.390;7.180;2023-01-13T11:58:43;6.57;;;1.35;;
36449;SDS011;22475;51.390;7.180;2023-01-13T12:01:29;13.15;;;1.95;;
36449;SDS011;22475;51.390;7.180;2023-01-13T12:04:16;3.17;;;1.10;;
36449;SDS011;22475;51.390;7.180;2023-01-13T12:06:51;13.60;;;1.63;;
36449;SDS011;22475;51.390;7.180;2023-01-13T12:09:32;5.95;;;1.20;;
36449;SDS011;22475;51.390;7.180;2023-01-13T12:12:14;5.38;;;1.52;;
36449;SDS011;22475;51.390;7.180;2023-01-13T12:15:00;9.90;;;2.25;;
36449;SDS011;22475;51.390;7.180;2023-01-13T12:17:48;8.35;;;1.88;;
36449;SDS011;22475;51.390;7.180;2023-01-13T12:20:29;18.70;;;2.35;;
36449;SDS011;22475;51.390;7.180;2023-01-13T12:23:05;12.48;;;2.00;;
36449;SDS011;22475;51.390;7.180;2023-01-13T12:25:38;13.70;;;2.15;;
36449;SDS011;22475;51.390;7.180;2023-01-13T12:28:10;6.13;;;1.50;;
36449;SDS011;22475;51.390;7.180;2023-01-13T12:30:43;10.40;;;1.73;;
36449;SDS011;22475;51.390;7.180;2023-01-13T12:33:16;12.38;;;2.00;;
36449;SDS011;22475;51.390;7.180;2023-01-13T12:35:50;17.35;;;2.30;;
36449;SDS011;22475;51.390;7.180;2023-01-13T12:38:26;13.93;;;1.70;;
36449;SDS011;22475;51.390;7.180;2023-01-13T12:41:02;8.38;;;0.95;;
36449;SDS011;22475;51.390;7.180;2023-01-13T12:43:38;4.20;;;1.67;;
36449;SDS011;22475;51.390;7.180;2023-01-13T12:46:43;8.05;;;1.88;;
36449;SDS011;22475;51.390;7.180;2023-01-13T12:49:18;8.57;;;1.67;;
36449;SDS011;22475;51.390;7.180;2023-01-13T12:52:00;5.03;;;1.40;;
36449;SDS011;22475;51.390;7.180;2023-01-13T12:57:32;7.75;;;1.67;;
36449;SDS011;22475;51.390;7.180;2023-01-13T13:00:12;6.82;;;1.25;;
36449;SDS011;22475;51.390;7.180;2023-01-13T13:02:41;5.03;;;1.48;;
36449;SDS011;22475;51.390;7.180;2023-01-13T13:05:30;4.43;;;1.13;;
36449;SDS011;22475;51.390;7.180;2023-01-13T13:08:10;4.32;;;1.17;;
36449;SDS011;22475;51.390;7.180;2023-01-13T13:11:01;4.38;;;0.98;;
36449;SDS011;22475;51.390;7.180;2023-01-13T13:13:58;7.82;;;1.90;;
36449;SDS011;22475;51.390;7.180;2023-01-13T13:16:43;10.18;;;1.33;;
36449;SDS011;22475;51.390;7.180;2023-01-13T13:22:19;4.85;;;0.98;;
36449;SDS011;22475;51.390;7.180;2023-01-13T13:27:48;6.85;;;1.63;;
36449;SDS011;22475;51.390;7.180;2023-01-13T13:30:44;2.95;;;1.00;;
36449;SDS011;22475;51.390;7.180;2023-01-13T13:33:35;12.00;;;1.58;;
36449;SDS011;22475;51.390;7.180;2023-01-13T13:36:16;5.05;;;0.82;;
36449;SDS011;22475;51.390;7.180;2023-01-13T13:39:01;7.97;;;1.60;;
36449;SDS011;22475;51.390;7.180;2023-01-13T13:41:55;2.85;;;1.27;;
36449;SDS011;22475;51.390;7.180;2023-01-13T13:44:46;5.75;;;0.90;;
36449;SDS011;22475;51.390;7.180;2023-01-13T13:47:33;7.88;;;1.15;;
36449;SDS011;22475;51.390;7.180;2023-01-13T13:50:05;4.22;;;0.95;;
36449;SDS011;22475;51.390;7.180;2023-01-13T13:52:35;10.05;;;1.13;;
36449;SDS011;22475;51.390;7.180;2023-01-13T13:55:06;5.68;;;1.05;;
36449;SDS011;22475;51.390;7.180;2023-01-13T13:57:43;6.60;;;1.05;;
36449;SDS011;22475;51.390;7.180;2023-01-13T14:00:19;8.32;;;1.55;;
36449;SDS011;22475;51.390;7.180;2023-01-13T14:02:49;4.28;;;1.17;;
36449;SDS011;22475;51.390;7.180;2023-01-13T14:05:20;7.80;;;1.42;;
36449;SDS011;22475;51.390;7.180;2023-01-13T14:07:49;5.70;;;0.95;;
36449;SDS011;22475;51.390;7.180;2023-01-13T14:10:23;7.60;;;1.35;;
36449;SDS011;22475;51.390;7.180;2023-01-13T14:12:53;3.83;;;0.80;;
36449;SDS011;22475;51.390;7.180;2023-01-13T14:15:24;12.13;;;1.73;;
36449;SDS011;22475;51.390;7.180;2023-01-13T14:17:52;15.07;;;1.98;;
36449;SDS011;22475;51.390;7.180;2023-01-13T14:20:21;8.43;;;1.42;;
36449;SDS011;22475;51.390;7.180;2023-01-13T14:22:48;6.07;;;1.35;;
36449;SDS011;22475;51.390;7.180;2023-01-13T14:25:27;7.05;;;1.25;;
36449;SDS011;22475;51.390;7.180;2023-01-13T14:27:56;7.20;;;1.58;;
36449;SDS011;22475;51.390;7.180;2023-01-13T14:30:25;13.27;;;1.20;;
36449;SDS011;22475;51.390;7.180;2023-01-13T14:32:53;11.43;;;1.63;;
36449;SDS011;22475;51.390;7.180;2023-01-13T14:35:22;10.15;;;1.65;;
36449;SDS011;22475;51.390;7.180;2023-01-13T14:37:49;6.82;;;1.65;;
36449;SDS011;22475;51.390;7.180;2023-01-13T14:43:12;3.08;;;0.90;;
36449;SDS011;22475;51.390;7.180;2023-01-13T14:45:42;11.15;;;1.75;;
36449;SDS011;22475;51.390;7.180;2023-01-13T14:48:20;3.65;;;1.00;;
36449;SDS011;22475;51.390;7.180;2023-01-13T14:50:56;4.93;;;1.25;;
36449;SDS011;22475;51.390;7.180;2023-01-13T14:53:25;5.10;;;1.33;;
36449;SDS011;22475;51.390;7.180;2023-01-13T14:55:54;7.57;;;1.20;;
36449;SDS011;22475;51.390;7.180;2023-01-13T14:58:22;7.60;;;1.35;;
36449;SDS011;22475;51.390;7.180;2023-01-13T15:00:50;7.35;;;1.25;;
36449;SDS011;22475;51.390;7.180;2023-01-13T15:03:18;11.23;;;1.77;;
36449;SDS011;22475;51.390;7.180;2023-01-13T15:05:46;14.68;;;1.08;;
36449;SDS011;22475;51.390;7.180;2023-01-13T15:08:26;3.95;;;1.25;;
36449;SDS011;22475;51.390;7.180;2023-01-13T15:10:56;4.95;;;1.50;;
36449;SDS011;22475;51.390;7.180;2023-01-13T15:13:26;7.22;;;1.50;;
36449;SDS011;22475;51.390;7.180;2023-01-13T15:16:00;7.57;;;1.65;;
36449;SDS011;22475;51.390;7.180;2023-01-13T15:18:29;13.73;;;1.65;;
36449;SDS011;22475;51.390;7.180;2023-01-13T15:20:56;8.02;;;1.90;;
36449;SDS011;22475;51.390;7.180;2023-01-13T15:23:23;3.33;;;1.50;;
36449;SDS011;22475;51.390;7.180;2023-01-13T15:25:51;5.72;;;1.52;;
36449;SDS011;22475;51.390;7.180;2023-01-13T15:28:19;5.15;;;1.50;;
36449;SDS011;22475;51.390;7.180;2023-01-13T15:30:47;8.27;;;1.40;;
36449;SDS011;22475;51.390;7.180;2023-01-13T15:33:15;4.85;;;1.30;;
36449;SDS011;22475;51.390;7.180;2023-01-13T15:35:43;8.13;;;1.17;;
36449;SDS011;22475;51.390;7.180;2023-01-13T15:38:12;11.05;;;1.77;;
36449;SDS011;22475;51.390;7.180;2023-01-13T15:40:41;4.90;;;1.38;;
36449;SDS011;22475;51.390;7.180;2023-01-13T15:43:11;6.32;;;1.00;;
36449;SDS011;22475;51.390;7.180;2023-01-13T15:45:57;4.53;;;1.48;;